Crescent, Texas
Current Conditions -  °F | °C
As of 2:15 AM on Sunday 23 Nov 2014 (Local Time) from KARM Reporting Station
Clear Clear  
Wind Chill: 62°   Ceiling: Unl
Heat Index: 62°   Visibility: 10mi
Dew Point: 60°   Wind: 8mph
Humidity: 94%   Direction: 230°SW
Pressure: 29.68"   Gusts: NA
Location:  29.2926°N, 96.034°W
Report Text: KARM 230815Z AUTO 23007KT 10SM CLR 17/16 A2968 RMK AO2 T01650156
Loading
Personal Weather Stations






























Interactive Weather Map New forecast layout! Learn more

10-Day Weather Forecast

Advertisements
Track Severe Weather on mobile